Time;durP1;ratioP1;P1;durP2;ratioP2;P2;SDS_P1;SDS_P2;PMS_P1;PMS_P2;Temp;Humidity;BMP_temperature;BMP_pressure;BME280_temperature;BME280_humidity;BME280_pressure;Samples;Min_cycle;Max_cycle;Signal;HPM_P1;HPM_P2
2022/05/31 00:00:12;;;;;;;4.67;1.70;;;10.20;99.90;;;;;;5032229;28;20298;-61
2022/05/31 00:02:39;;;;;;;4.00;2.10;;;10.10;99.90;;;;;;5032303;28;20649;-60
2022/05/31 00:05:07;;;;;;;2.13;1.60;;;10.00;99.90;;;;;;5031916;28;20246;-60
2022/05/31 00:07:35;;;;;;;3.30;2.10;;;10.00;99.90;;;;;;5032017;28;20246;-61
2022/05/31 00:10:02;;;;;;;2.67;1.87;;;10.00;99.90;;;;;;5032450;28;20594;-61
2022/05/31 00:12:29;;;;;;;1.70;1.60;;;10.00;99.90;;;;;;5031738;28;20225;-61
2022/05/31 00:14:56;;;;;;;3.30;1.70;;;9.90;99.90;;;;;;5031939;28;20210;-60
2022/05/31 00:17:22;;;;;;;2.77;1.40;;;10.00;99.90;;;;;;5031710;28;20725;-61
2022/05/31 00:19:49;;;;;;;4.13;2.07;;;10.00;99.90;;;;;;5031739;28;20260;-61
2022/05/31 00:22:18;;;;;;;3.40;1.70;;;10.00;99.90;;;;;;5031576;28;20241;-60
2022/05/31 00:24:46;;;;;;;4.23;1.77;;;10.00;99.90;;;;;;5031543;28;20213;-61
2022/05/31 00:27:15;;;;;;;3.50;1.60;;;10.00;99.90;;;;;;5032015;28;20256;-61
2022/05/31 00:29:42;;;;;;;3.83;1.80;;;9.90;99.90;;;;;;5031781;28;20210;-61
2022/05/31 00:32:11;;;;;;;4.33;2.07;;;10.00;99.90;;;;;;5031923;28;20255;-61
2022/05/31 00:34:41;;;;;;;2.40;1.50;;;10.00;99.90;;;;;;5031781;28;20264;-61
2022/05/31 00:37:08;;;;;;;2.17;1.97;;;10.00;99.90;;;;;;5031731;28;20253;-61
2022/05/31 00:39:35;;;;;;;4.33;1.87;;;10.10;99.90;;;;;;5031863;28;20202;-61
2022/05/31 00:42:06;;;;;;;2.43;1.67;;;10.10;99.90;;;;;;5031819;28;20272;-60
2022/05/31 00:44:34;;;;;;;5.67;1.63;;;10.20;99.90;;;;;;5031621;28;20206;-61
2022/05/31 00:47:03;;;;;;;3.10;1.60;;;10.30;99.90;;;;;;5031783;28;20626;-60
2022/05/31 00:49:34;;;;;;;2.67;1.60;;;10.30;99.90;;;;;;5031834;28;20260;-61
2022/05/31 00:52:06;;;;;;;2.33;1.50;;;10.30;99.90;;;;;;5032029;28;20255;-61
2022/05/31 00:54:36;;;;;;;1.90;1.60;;;10.20;99.90;;;;;;5035433;28;20732;-60
2022/05/31 00:57:06;;;;;;;2.50;1.67;;;10.30;99.90;;;;;;5035439;28;20226;-60
2022/05/31 00:59:37;;;;;;;2.50;1.67;;;10.30;99.90;;;;;;5035775;28;20609;-60
2022/05/31 01:02:05;;;;;;;1.70;1.60;;;10.20;99.90;;;;;;5035667;28;20640;-60
2022/05/31 01:04:35;;;;;;;1.80;1.50;;;10.30;99.90;;;;;;5035117;28;20209;-61
2022/05/31 01:07:02;;;;;;;1.97;1.60;;;10.30;99.90;;;;;;5035798;28;20206;-61
2022/05/31 01:09:30;;;;;;;4.00;1.80;;;10.30;99.90;;;;;;5035225;28;20565;-61
2022/05/31 01:11:58;;;;;;;2.27;1.60;;;10.30;99.90;;;;;;5035335;28;20233;-60
2022/05/31 01:14:27;;;;;;;1.53;1.43;;;10.40;99.90;;;;;;5035318;28;20305;-61
2022/05/31 01:16:56;;;;;;;2.63;1.90;;;10.40;99.90;;;;;;5035697;28;20230;-60
2022/05/31 01:22:08;;;;;;;1.83;1.50;;;10.40;99.90;;;;;;5035619;28;20244;-61
2022/05/31 01:24:45;;;;;;;1.70;1.50;;;10.40;99.90;;;;;;5035229;28;20217;-61
2022/05/31 01:27:23;;;;;;;2.00;1.63;;;10.40;99.90;;;;;;5035733;28;20198;-61
2022/05/31 01:29:51;;;;;;;2.20;2.00;;;10.40;99.90;;;;;;5035889;28;20210;-61
2022/05/31 01:32:17;;;;;;;3.47;1.80;;;10.40;99.90;;;;;;5035821;28;20230;-62
2022/05/31 01:34:52;;;;;;;1.93;1.73;;;10.50;99.90;;;;;;5035360;28;20236;-61
2022/05/31 01:37:23;;;;;;;1.80;1.60;;;10.50;99.90;;;;;;5034982;28;20320;-61
2022/05/31 01:39:53;;;;;;;3.30;2.00;;;10.50;99.90;;;;;;5034678;28;20218;-61
2022/05/31 01:42:24;;;;;;;2.50;1.80;;;10.50;99.90;;;;;;5034925;28;20636;-61
2022/05/31 01:44:54;;;;;;;1.90;1.77;;;10.40;99.90;;;;;;5034679;28;20301;-61
2022/05/31 01:47:22;;;;;;;2.57;1.70;;;10.40;99.90;;;;;;5034894;28;20211;-61
2022/05/31 01:49:54;;;;;;;4.17;2.80;;;10.40;99.90;;;;;;5034759;28;20198;-61
2022/05/31 01:52:23;;;;;;;4.47;2.77;;;10.30;99.90;;;;;;5034398;28;20718;-61
2022/05/31 01:54:51;;;;;;;4.17;2.50;;;10.30;99.90;;;;;;5034430;28;20206;-61
2022/05/31 01:57:19;;;;;;;3.37;2.10;;;10.30;99.90;;;;;;5034330;28;20601;-61
2022/05/31 01:59:49;;;;;;;3.67;2.17;;;10.30;99.90;;;;;;5034390;28;20214;-61
2022/05/31 02:02:18;;;;;;;2.10;1.80;;;10.30;99.90;;;;;;5034359;28;20226;-61
2022/05/31 02:04:45;;;;;;;2.20;1.77;;;10.30;99.90;;;;;;5032876;28;20593;-61
2022/05/31 02:07:15;;;;;;;1.50;1.40;;;10.20;99.90;;;;;;5034380;28;20215;-61
2022/05/31 02:09:45;;;;;;;2.63;2.20;;;10.20;99.90;;;;;;5034371;28;20256;-61
2022/05/31 02:12:14;;;;;;;3.00;1.60;;;10.10;99.90;;;;;;5034259;28;20237;-61
2022/05/31 02:14:41;;;;;;;2.00;1.80;;;10.00;99.90;;;;;;5033801;28;20273;-61
2022/05/31 02:17:07;;;;;;;4.30;1.90;;;9.90;99.90;;;;;;5034026;28;20280;-62
2022/05/31 02:19:34;;;;;;;3.27;1.77;;;9.90;99.90;;;;;;5034035;28;20209;-60
2022/05/31 02:22:03;;;;;;;2.07;1.80;;;9.80;99.90;;;;;;5033806;28;20594;-62
2022/05/31 02:24:30;;;;;;;2.43;2.00;;;9.70;99.90;;;;;;5033749;28;20216;-61
2022/05/31 02:26:58;;;;;;;1.87;1.53;;;9.70;99.90;;;;;;5033910;28;20217;-61
2022/05/31 02:29:29;;;;;;;2.63;2.03;;;9.70;99.90;;;;;;5033875;28;20210;-61
2022/05/31 02:31:58;;;;;;;3.97;1.93;;;9.60;99.90;;;;;;5033778;28;20230;-61
2022/05/31 02:34:27;;;;;;;3.17;1.60;;;9.50;99.90;;;;;;5033579;28;20213;-61
2022/05/31 02:36:54;;;;;;;3.17;2.10;;;9.50;99.90;;;;;;5033855;28;20765;-61
2022/05/31 02:39:21;;;;;;;2.20;1.90;;;9.40;99.90;;;;;;5033828;28;20624;-61
2022/05/31 02:41:48;;;;;;;3.83;1.70;;;9.40;99.90;;;;;;5033622;28;20717;-61
2022/05/31 02:44:16;;;;;;;3.03;2.30;;;9.30;99.90;;;;;;5033703;28;20206;-62
2022/05/31 02:46:43;;;;;;;2.53;1.80;;;9.30;99.90;;;;;;5033456;28;20619;-61
2022/05/31 02:49:11;;;;;;;3.57;2.03;;;9.40;99.90;;;;;;5033446;28;20214;-62
2022/05/31 02:51:40;;;;;;;4.60;2.23;;;9.40;99.90;;;;;;5033516;28;20230;-62
2022/05/31 02:54:08;;;;;;;2.97;2.27;;;9.40;99.90;;;;;;5033112;28;20212;-61
2022/05/31 02:56:34;;;;;;;4.20;2.07;;;9.40;99.90;;;;;;5033177;28;20213;-61
2022/05/31 02:59:01;;;;;;;4.17;2.60;;;9.40;99.90;;;;;;5033166;28;20260;-61
2022/05/31 03:01:32;;;;;;;5.07;2.30;;;9.40;99.90;;;;;;5033573;28;20230;-62
2022/05/31 03:03:59;;;;;;;2.23;1.67;;;9.40;99.90;;;;;;5032962;28;20297;-61
2022/05/31 03:06:26;;;;;;;5.23;2.20;;;9.40;99.90;;;;;;5033129;28;20312;-61
2022/05/31 03:08:53;;;;;;;2.97;2.20;;;9.40;99.90;;;;;;5033040;28;20276;-61
2022/05/31 03:11:25;;;;;;;2.23;2.00;;;9.40;99.90;;;;;;5032964;28;20238;-61
2022/05/31 03:13:55;;;;;;;3.30;2.23;;;9.40;99.90;;;;;;5032674;28;20241;-62
2022/05/31 03:16:22;;;;;;;3.47;2.07;;;9.40;99.90;;;;;;5032712;28;20210;-60
2022/05/31 03:18:55;;;;;;;2.77;2.20;;;9.40;99.90;;;;;;5032773;28;20226;-61
2022/05/31 03:21:27;;;;;;;2.20;1.83;;;9.40;99.90;;;;;;5032925;28;20237;-61
2022/05/31 03:23:57;;;;;;;3.17;2.40;;;9.40;99.90;;;;;;5032609;28;20264;-61
2022/05/31 03:26:28;;;;;;;3.37;2.03;;;9.40;99.90;;;;;;5032801;28;20214;-61
2022/05/31 03:28:54;;;;;;;2.27;1.90;;;9.40;99.90;;;;;;5032903;28;20214;-61
2022/05/31 03:31:21;;;;;;;2.47;1.93;;;9.40;99.90;;;;;;5032471;28;20222;-61
2022/05/31 03:33:48;;;;;;;2.73;2.00;;;9.40;99.90;;;;;;5032735;28;20201;-61
2022/05/31 03:36:16;;;;;;;4.07;1.97;;;9.40;99.90;;;;;;5032149;28;20206;-61
2022/05/31 03:38:43;;;;;;;2.37;1.90;;;9.30;99.90;;;;;;5032799;28;20234;-61
2022/05/31 03:41:09;;;;;;;2.93;2.10;;;9.30;99.90;;;;;;5032619;28;20226;-61
2022/05/31 03:43:37;;;;;;;2.67;2.20;;;9.20;99.90;;;;;;5032588;28;20221;-61
2022/05/31 03:46:04;;;;;;;4.10;2.13;;;9.20;99.90;;;;;;5032171;28;20206;-61
2022/05/31 03:48:31;;;;;;;4.13;2.07;;;9.20;99.90;;;;;;5032193;28;20206;-61
2022/05/31 03:50:59;;;;;;;4.00;2.30;;;9.10;99.90;;;;;;5032140;28;20226;-61
2022/05/31 03:53:28;;;;;;;2.67;1.80;;;9.10;99.90;;;;;;5032274;28;20297;-61
2022/05/31 03:55:54;;;;;;;3.13;2.13;;;9.20;99.90;;;;;;5032107;28;20213;-61
2022/05/31 03:58:21;;;;;;;3.37;2.00;;;9.30;99.90;;;;;;5032091;28;20222;-61
2022/05/31 04:00:48;;;;;;;3.27;2.00;;;9.40;99.90;;;;;;5032201;28;20226;-61
2022/05/31 04:03:15;;;;;;;2.77;2.00;;;9.40;99.90;;;;;;5032117;28;20206;-61
2022/05/31 04:05:42;;;;;;;1.90;1.70;;;9.50;99.90;;;;;;5031839;28;20264;-61
2022/05/31 04:08:11;;;;;;;5.57;1.90;;;9.60;99.90;;;;;;5032243;28;20206;-60
2022/05/31 04:10:40;;;;;;;2.37;1.80;;;9.70;99.90;;;;;;5032447;28;20296;-60
2022/05/31 04:13:07;;;;;;;2.67;1.80;;;9.90;99.90;;;;;;5032253;28;20245;-60
2022/05/31 04:15:34;;;;;;;4.23;1.90;;;10.00;99.90;;;;;;5031697;28;20672;-62
2022/05/31 04:18:01;;;;;;;4.43;2.13;;;10.10;99.90;;;;;;5032214;28;20230;-62
2022/05/31 04:20:28;;;;;;;2.70;2.00;;;10.30;99.90;;;;;;5031840;28;20245;-62
2022/05/31 04:23:57;;;;;;;4.90;2.10;;;10.50;99.90;;;;;;5032115;28;20210;-62
2022/05/31 04:25:43;;;;;;;3.10;2.30;;;10.60;99.90;;;;;;5031564;28;20210;-62
2022/05/31 04:28:10;;;;;;;3.10;2.17;;;10.60;99.90;;;;;;5031518;28;20213;-62
2022/05/31 04:30:37;;;;;;;3.30;2.20;;;10.70;99.90;;;;;;5031730;28;20678;-62
2022/05/31 04:33:04;;;;;;;3.80;2.73;;;10.90;99.90;;;;;;5031906;28;20260;-62
2022/05/31 04:35:31;;;;;;;2.87;2.23;;;11.00;99.90;;;;;;5031637;28;20213;-62
2022/05/31 04:37:58;;;;;;;5.03;2.63;;;11.10;99.90;;;;;;5031786;28;20226;-62
2022/05/31 04:40:25;;;;;;;2.40;2.20;;;11.30;99.90;;;;;;5031771;28;20213;-62
2022/05/31 04:42:54;;;;;;;2.27;2.07;;;11.40;99.90;;;;;;5031816;28;20237;-62
2022/05/31 04:45:21;;;;;;;2.70;2.30;;;11.50;99.90;;;;;;5031322;28;20210;-62
2022/05/31 04:47:47;;;;;;;4.27;2.30;;;11.50;99.90;;;;;;5031531;28;20670;-61
2022/05/31 04:50:14;;;;;;;3.70;1.90;;;11.60;99.90;;;;;;5031300;28;20625;-62
2022/05/31 04:52:41;;;;;;;4.97;2.00;;;11.50;99.90;;;;;;5031646;28;20254;-62
2022/05/31 04:55:09;;;;;;;3.83;1.97;;;11.40;99.90;;;;;;5031412;28;20438;-62
2022/05/31 04:57:36;;;;;;;3.83;2.00;;;11.40;99.90;;;;;;5031391;28;20232;-62
2022/05/31 05:00:06;;;;;;;2.57;1.97;;;11.30;99.90;;;;;;5031377;28;20320;-62
2022/05/31 05:02:33;;;;;;;4.50;2.30;;;11.30;99.90;;;;;;5031398;28;20624;-62
2022/05/31 05:05:00;;;;;;;3.37;2.10;;;11.50;99.90;;;;;;5031208;28;20237;-62
2022/05/31 05:07:29;;;;;;;2.57;1.93;;;11.60;99.90;;;;;;5031306;28;20713;-62
2022/05/31 05:09:55;;;;;;;3.73;1.83;;;11.90;99.90;;;;;;5031372;28;20261;-62
2022/05/31 05:12:22;;;;;;;2.30;1.90;;;12.50;99.90;;;;;;5031131;28;20233;-62
2022/05/31 05:14:49;;;;;;;3.83;1.70;;;14.00;99.90;;;;;;5030874;28;20662;-62
2022/05/31 05:17:17;;;;;;;2.13;1.47;;;16.00;99.90;;;;;;5031187;28;20214;-61
2022/05/31 05:19:43;;;;;;;2.23;1.70;;;17.90;99.90;;;;;;5031303;28;20393;-62
2022/05/31 05:22:10;;;;;;;1.65;1.45;;;19.70;99.90;;;;;;5044910;23;20234;-61
2022/05/31 05:24:37;;;;;;;2.75;1.55;;;21.40;96.80;;;;;;5030730;28;20214;-61
2022/05/31 05:27:04;;;;;;;2.10;1.70;;;22.40;91.70;;;;;;5031020;28;20245;-61
2022/05/31 05:32:16;;;;;;;5.65;1.65;;;22.20;87.20;;;;;;5030963;28;20241;-61
2022/05/31 05:34:43;;;;;;;2.65;1.35;;;22.20;85.60;;;;;;5030805;28;20253;-61
2022/05/31 05:37:09;;;;;;;2.40;1.40;;;22.80;81.80;;;;;;5030922;28;20206;-61
2022/05/31 05:39:36;;;;;;;3.10;1.60;;;23.60;79.70;;;;;;5033582;28;20605;-61
2022/05/31 05:42:03;;;;;;;2.60;1.48;;;24.80;75.70;;;;;;5034543;28;20233;-61
2022/05/31 05:44:30;;;;;;;2.47;1.80;;;26.00;70.50;;;;;;5034139;28;20618;-61
2022/05/31 05:46:56;;;;;;;3.83;1.70;;;26.90;65.30;;;;;;5034527;28;20207;-61
2022/05/31 05:49:24;;;;;;;3.03;1.52;;;28.00;62.10;;;;;;5034303;28;20206;-61
2022/05/31 05:51:52;;;;;;;2.95;2.00;;;29.30;58.60;;;;;;5034258;28;20226;-61
2022/05/31 05:54:19;;;;;;;2.50;1.40;;;30.40;53.90;;;;;;5034404;28;20275;-61
2022/05/31 05:56:46;;;;;;;2.40;1.60;;;31.30;51.50;;;;;;5034366;28;20345;-62
2022/05/31 05:59:12;;;;;;;2.92;1.70;;;32.00;49.20;;;;;;5034592;28;20233;-64
2022/05/31 06:01:42;;;;;;;4.05;2.30;;;32.50;48.70;;;;;;5034242;28;20226;-62
2022/05/31 06:04:13;;;;;;;6.88;1.95;;;32.60;47.50;;;;;;5033779;28;20567;-61
2022/05/31 06:06:44;;;;;;;5.13;1.30;;;31.60;48.30;;;;;;5033843;28;20233;-61
2022/05/31 06:09:15;;;;;;;2.88;1.35;;;30.70;48.80;;;;;;5033795;28;20658;-61
2022/05/31 06:11:46;;;;;;;1.55;1.30;;;29.50;50.50;;;;;;5034397;28;20226;-61
2022/05/31 06:14:18;;;;;;;4.07;2.00;;;28.70;52.10;;;;;;5033556;28;20296;-61
2022/05/31 06:16:48;;;;;;;2.30;1.58;;;29.00;51.70;;;;;;5033671;28;20592;-61
2022/05/31 06:19:18;;;;;;;2.00;1.40;;;29.90;51.40;;;;;;5034101;28;20249;-61
2022/05/31 06:21:49;;;;;;;2.30;1.70;;;31.00;49.70;;;;;;5033642;28;20249;-63
2022/05/31 06:24:16;;;;;;;3.08;1.65;;;32.20;47.00;;;;;;5033532;28;20297;-61
2022/05/31 06:26:43;;;;;;;1.90;1.40;;;33.20;45.40;;;;;;5033795;28;20232;-61
2022/05/31 06:29:11;;;;;;;2.20;1.70;;;32.60;46.10;;;;;;5033718;28;20202;-61
2022/05/31 06:31:37;;;;;;;2.83;1.35;;;31.90;46.50;;;;;;5033311;28;20321;-61
2022/05/31 06:34:04;;;;;;;3.50;1.85;;;30.80;47.70;;;;;;5033424;28;20218;-61
2022/05/31 06:36:31;;;;;;;2.17;1.45;;;29.50;49.90;;;;;;5033443;28;20230;-61
2022/05/31 06:38:59;;;;;;;3.33;1.80;;;28.30;51.80;;;;;;5033480;28;20226;-61
2022/05/31 06:41:26;;;;;;;2.97;1.42;;;27.20;53.80;;;;;;5033229;28;20226;-61
2022/05/31 06:43:52;;;;;;;6.30;4.00;;;26.50;55.40;;;;;;5033431;28;20210;-61
2022/05/31 06:46:19;;;;;;;3.47;1.85;;;26.30;56.00;;;;;;5033231;28;20260;-62
2022/05/31 06:48:46;;;;;;;2.63;1.52;;;26.90;55.00;;;;;;5033322;28;20604;-62
2022/05/31 06:56:47;;;;;;;4.18;1.63;;;27.30;54.60;;;;;;5032558;28;20228;-62
2022/05/31 06:56:50;;;;;;;2.83;2.20;;;26.50;56.00;;;;;;5033199;28;20701;-61
2022/05/31 06:59:17;;;;;;;5.70;4.65;;;26.00;57.10;;;;;;5033198;28;20222;-61
2022/05/31 07:01:45;;;;;;;1.95;1.63;;;25.90;57.70;;;;;;5033063;28;20226;-61
2022/05/31 07:04:12;;;;;;;1.50;1.05;;;25.70;57.50;;;;;;5032933;28;20217;-61
2022/05/31 07:06:38;;;;;;;2.15;1.75;;;25.30;58.20;;;;;;5032743;28;20666;-61
2022/05/31 07:09:07;;;;;;;2.35;1.23;;;25.10;59.00;;;;;;5032813;28;20678;-61
2022/05/31 07:11:34;;;;;;;1.20;0.82;;;25.10;59.40;;;;;;5032626;28;20230;-60
2022/05/31 07:14:01;;;;;;;1.70;1.10;;;25.80;58.30;;;;;;5032979;28;20340;-61
2022/05/31 07:16:29;;;;;;;1.25;1.10;;;26.30;57.90;;;;;;5032587;28;20305;-61
2022/05/31 07:18:56;;;;;;;1.65;1.02;;;27.40;56.10;;;;;;5032507;28;20218;-61
2022/05/31 07:21:23;;;;;;;2.10;1.13;;;28.70;54.00;;;;;;5032329;28;20234;-61
2022/05/31 07:23:53;;;;;;;2.95;1.00;;;30.20;51.60;;;;;;5032599;28;20297;-63
2022/05/31 07:26:21;;;;;;;1.58;1.00;;;31.40;50.00;;;;;;5032163;28;20493;-60
2022/05/31 07:28:48;;;;;;;4.28;3.88;;;32.70;48.00;;;;;;5032665;28;20293;-60
2022/05/31 07:31:14;;;;;;;4.68;1.30;;;33.90;47.40;;;;;;5032341;28;20234;-61
2022/05/31 07:33:41;;;;;;;2.28;1.30;;;35.20;44.70;;;;;;5032548;28;20209;-60
2022/05/31 07:36:09;;;;;;;2.40;1.85;;;36.40;43.20;;;;;;5032109;28;20210;-60
2022/05/31 07:38:36;;;;;;;0.98;0.77;;;37.30;42.10;;;;;;5032110;28;20222;-60
2022/05/31 07:41:02;;;;;;;2.33;1.33;;;37.30;40.20;;;;;;5032139;28;20260;-60
2022/05/31 07:43:31;;;;;;;1.80;1.27;;;36.10;41.40;;;;;;5032256;28;20206;-60
2022/05/31 07:46:05;;;;;;;3.60;1.30;;;35.90;42.00;;;;;;5031929;28;20236;-60
2022/05/31 07:48:32;;;;;;;5.18;1.10;;;36.30;41.80;;;;;;5032267;28;20242;-61
2022/05/31 07:50:59;;;;;;;2.25;0.77;;;37.40;41.20;;;;;;5032334;28;20210;-61
2022/05/31 07:53:25;;;;;;;1.30;0.88;;;37.90;39.80;;;;;;5032207;28;20202;-61
2022/05/31 07:55:56;;;;;;;1.65;1.02;;;38.60;37.70;;;;;;5031877;28;20207;-61
2022/05/31 07:58:32;;;;;;;4.40;0.90;;;39.20;37.40;;;;;;5031804;28;20238;-61
2022/05/31 08:01:01;;;;;;;2.05;1.10;;;39.00;36.90;;;;;;5032398;28;20206;-61
2022/05/31 08:03:29;;;;;;;2.63;1.15;;;38.60;37.30;;;;;;5031254;28;20292;-62
2022/05/31 08:05:56;;;;;;;2.88;1.00;;;38.40;37.70;;;;;;5031839;28;20213;-62
2022/05/31 08:08:23;;;;;;;3.17;1.42;;;39.20;37.80;;;;;;5031956;28;20681;-61
2022/05/31 08:10:50;;;;;;;3.95;1.35;;;39.60;37.40;;;;;;5031789;28;20728;-61
2022/05/31 08:13:17;;;;;;;3.67;1.30;;;40.00;37.60;;;;;;5031616;28;20226;-61
2022/05/31 08:15:43;;;;;;;2.53;1.15;;;40.60;36.50;;;;;;5031412;28;20206;-61
2022/05/31 08:18:11;;;;;;;3.67;1.30;;;39.80;37.00;;;;;;5031848;28;20210;-61
2022/05/31 08:20:39;;;;;;;3.05;1.15;;;39.40;37.30;;;;;;5032089;28;20213;-61
2022/05/31 08:23:06;;;;;;;1.13;0.90;;;39.80;37.20;;;;;;5032514;28;20295;-62
2022/05/31 08:25:33;;;;;;;3.10;1.02;;;40.30;35.90;;;;;;5031749;28;20229;-60
2022/05/31 08:28:01;;;;;;;3.92;1.15;;;39.40;36.70;;;;;;5028072;28;20208;-61
2022/05/31 08:30:28;;;;;;;2.30;1.10;;;38.10;38.40;;;;;;5031027;28;20236;-64
2022/05/31 08:32:54;;;;;;;4.32;1.38;;;38.60;38.30;;;;;;5031888;28;20221;-62
2022/05/31 08:35:23;;;;;;;1.70;1.00;;;39.00;37.00;;;;;;5031240;28;20230;-63
2022/05/31 08:37:49;;;;;;;2.30;1.33;;;38.60;37.50;;;;;;5030094;28;20206;-63
2022/05/31 08:40:16;;;;;;;1.52;0.80;;;38.50;38.50;;;;;;5030063;28;20222;-64
2022/05/31 08:42:52;;;;;;;1.55;0.73;;;38.40;36.10;;;;;;5030540;28;20712;-64
2022/05/31 08:45:43;;;;;;;1.95;1.00;;;37.80;36.50;;;;;;5031265;28;20580;-62
2022/05/31 08:48:21;;;;;;;2.88;0.80;;;36.50;37.60;;;;;;5032258;28;20202;-62
2022/05/31 08:56:56;;;;;;;2.55;1.15;;;31.80;43.10;;;;;;5030103;28;20217;-60
2022/05/31 08:56:56;;;;;;;2.15;1.20;;;33.50;41.20;;;;;;5014237;28;20199;-65
2022/05/31 08:59:31;;;;;;;1.45;0.80;;;30.40;44.70;;;;;;5030791;28;20360;-61
2022/05/31 09:02:02;;;;;;;2.17;0.90;;;29.30;46.20;;;;;;5033573;28;20374;-60
2022/05/31 09:04:34;;;;;;;2.17;1.23;;;28.60;47.30;;;;;;5030591;28;20245;-60
2022/05/31 09:07:07;;;;;;;1.30;0.85;;;28.20;48.20;;;;;;5030416;28;20653;-60
2022/05/31 09:09:40;;;;;;;1.52;1.02;;;28.00;48.60;;;;;;5030769;28;20238;-59
2022/05/31 09:12:15;;;;;;;2.67;1.60;;;28.10;48.60;;;;;;5030133;28;20229;-60
2022/05/31 09:14:51;;;;;;;2.60;1.08;;;28.20;48.70;;;;;;5032776;28;20626;-62
2022/05/31 09:17:26;;;;;;;2.03;1.10;;;28.20;49.70;;;;;;5033412;28;20218;-62
2022/05/31 09:20:01;;;;;;;1.92;1.13;;;28.30;50.10;;;;;;5032955;28;20240;-60
2022/05/31 09:22:29;;;;;;;3.40;1.27;;;28.40;50.40;;;;;;5033144;28;20244;-62
2022/05/31 09:24:56;;;;;;;3.63;1.15;;;28.30;50.60;;;;;;5033321;28;20217;-61
2022/05/31 09:27:29;;;;;;;1.38;1.13;;;28.40;50.80;;;;;;5033166;28;20666;-62
2022/05/31 09:30:04;;;;;;;3.17;1.10;;;28.50;49.40;;;;;;5033121;28;20210;-61
2022/05/31 09:32:53;;;;;;;4.65;1.40;;;28.50;50.60;;;;;;5033147;28;20230;-61
2022/05/31 09:35:36;;;;;;;1.90;1.23;;;28.50;50.20;;;;;;5033145;28;20229;-61
2022/05/31 09:38:27;;;;;;;2.65;1.17;;;28.80;49.60;;;;;;5032910;28;20206;-62
2022/05/31 09:41:06;;;;;;;14.57;8.23;;;28.90;49.10;;;;;;4990839;28;20665;-60
2022/05/31 09:43:38;;;;;;;2.30;1.38;;;29.00;48.90;;;;;;5033166;28;20202;-65
2022/05/31 09:46:08;;;;;;;7.05;1.98;;;29.10;49.20;;;;;;5032404;28;20579;-65
2022/05/31 09:48:35;;;;;;;5.70;1.50;;;29.20;48.60;;;;;;5033068;28;20261;-59
2022/05/31 09:51:24;;;;;;;5.43;1.42;;;29.20;49.00;;;;;;5032838;28;20257;-61
2022/05/31 09:59:25;;;;;;;3.55;1.50;;;27.30;51.40;;;;;;5032862;28;20672;-61
2022/05/31 10:01:52;;;;;;;2.00;1.33;;;26.70;51.90;;;;;;5032425;28;20296;-61
2022/05/31 10:04:25;;;;;;;2.10;1.30;;;26.30;52.70;;;;;;5032791;28;20209;-61
2022/05/31 10:06:56;;;;;;;2.38;1.58;;;26.00;53.90;;;;;;5031742;28;20297;-61
2022/05/31 10:09:31;;;;;;;1.63;1.50;;;26.00;54.30;;;;;;5032765;28;20208;-63
2022/05/31 10:12:26;;;;;;;2.22;1.60;;;26.10;54.00;;;;;;5032541;28;20230;-61
2022/05/31 10:14:55;;;;;;;3.55;1.30;;;26.20;53.50;;;;;;5018865;28;20213;-60
2022/05/31 10:17:37;;;;;;;3.88;1.65;;;26.10;53.70;;;;;;5032441;28;20233;-60
2022/05/31 10:20:12;;;;;;;3.13;1.58;;;26.00;53.80;;;;;;5032380;28;20313;-59
2022/05/31 10:22:39;;;;;;;4.05;1.70;;;26.00;53.50;;;;;;5031938;28;20283;-61
2022/05/31 10:25:22;;;;;;;3.03;1.30;;;26.10;52.60;;;;;;5030842;28;20218;-60
2022/05/31 10:27:49;;;;;;;4.10;1.63;;;26.30;53.20;;;;;;5030933;28;20214;-69
2022/05/31 10:30:23;;;;;;;3.05;1.55;;;26.10;53.40;;;;;;5031921;28;20199;-60
2022/05/31 10:32:51;;;;;;;3.05;1.50;;;25.80;52.40;;;;;;5032331;28;20309;-58
2022/05/31 10:35:20;;;;;;;4.43;1.55;;;25.40;53.60;;;;;;5031925;28;20317;-60
2022/05/31 10:37:57;;;;;;;3.33;1.50;;;25.10;54.30;;;;;;5031610;28;20206;-60
2022/05/31 10:40:32;;;;;;;4.70;3.20;;;24.90;55.20;;;;;;5031909;28;20230;-62
2022/05/31 10:43:05;;;;;;;2.47;1.83;;;25.10;54.50;;;;;;5031696;28;20570;-60
2022/05/31 10:45:32;;;;;;;2.88;1.73;;;25.50;54.00;;;;;;5031932;28;20321;-61
2022/05/31 10:48:00;;;;;;;3.80;1.70;;;26.10;55.00;;;;;;5032264;28;20256;-60
2022/05/31 10:50:33;;;;;;;2.45;1.25;;;26.50;53.00;;;;;;5032560;28;20206;-62
2022/05/31 10:53:12;;;;;;;2.33;1.70;;;26.60;53.40;;;;;;5032133;28;20276;-62
2022/05/31 10:55:46;;;;;;;2.95;1.85;;;26.40;53.50;;;;;;5031492;28;20210;-64
2022/05/31 10:58:29;;;;;;;3.90;1.75;;;26.20;54.00;;;;;;5032310;28;20662;-60
2022/05/31 11:01:00;;;;;;;5.10;1.75;;;26.10;54.00;;;;;;5031856;28;20697;-63
2022/05/31 11:03:37;;;;;;;5.88;1.80;;;26.00;53.90;;;;;;5031834;28;20276;-63
2022/05/31 11:06:15;;;;;;;2.40;1.60;;;25.90;54.00;;;;;;5031450;28;20422;-61
2022/05/31 11:12:04;;;;;;;4.72;1.65;;;25.90;53.50;;;;;;5031949;28;20244;-62
2022/05/31 11:14:55;;;;;;;5.68;1.73;;;26.00;53.20;;;;;;5031177;28;20214;-63
2022/05/31 11:17:52;;;;;;;3.40;1.80;;;26.00;53.80;;;;;;5031504;28;20210;-63
2022/05/31 11:20:23;;;;;;;6.68;1.60;;;25.80;53.80;;;;;;5030971;28;20229;-62
2022/05/31 11:23:04;;;;;;;4.38;1.75;;;25.60;54.40;;;;;;5053949;23;20301;-62
2022/05/31 11:25:57;;;;;;;2.78;1.50;;;25.70;55.10;;;;;;5030652;28;20285;-62
2022/05/31 11:28:51;;;;;;;4.20;1.55;;;25.80;53.50;;;;;;5031210;28;20224;-63
2022/05/31 11:31:30;;;;;;;3.50;1.55;;;25.60;53.20;;;;;;5030271;28;20202;-60
2022/05/31 11:34:21;;;;;;;3.10;1.30;;;25.30;53.10;;;;;;5031103;28;20215;-60
2022/05/31 11:37:08;;;;;;;2.00;1.33;;;25.20;52.00;;;;;;5030419;28;20206;-62
2022/05/31 11:39:47;;;;;;;2.60;1.70;;;25.10;52.60;;;;;;5030313;28;20229;-60
2022/05/31 11:42:24;;;;;;;1.55;1.17;;;25.10;52.70;;;;;;5030808;28;20237;-61
2022/05/31 11:45:03;;;;;;;3.45;1.45;;;25.10;53.50;;;;;;5030392;28;20585;-62
2022/05/31 11:47:50;;;;;;;3.78;1.60;;;25.30;53.30;;;;;;5030714;28;20244;-62
2022/05/31 11:50:27;;;;;;;2.72;1.40;;;25.60;51.50;;;;;;5027907;28;20214;-61
2022/05/31 11:53:21;;;;;;;2.53;1.38;;;26.00;51.30;;;;;;5029969;28;20225;-63
2022/05/31 11:55:52;;;;;;;3.15;1.20;;;26.20;50.20;;;;;;5030022;28;20306;-61
2022/05/31 11:58:27;;;;;;;4.60;1.73;;;26.40;50.50;;;;;;5030540;28;20210;-64
2022/05/31 12:01:09;;;;;;;3.63;1.70;;;26.50;50.80;;;;;;5030341;28;20252;-67
2022/05/31 12:03:47;;;;;;;4.25;1.48;;;26.50;50.50;;;;;;5030773;28;20264;-64
2022/05/31 12:06:35;;;;;;;1.73;1.23;;;26.50;50.50;;;;;;5030529;28;20268;-66
2022/05/31 12:09:13;;;;;;;3.72;1.60;;;26.40;51.10;;;;;;5030165;28;20305;-64
2022/05/31 12:11:47;;;;;;;3.58;1.40;;;26.20;51.90;;;;;;5030571;28;20245;-63
2022/05/31 12:14:15;;;;;;;2.85;1.40;;;26.40;50.80;;;;;;5030639;28;20210;-62
2022/05/31 12:16:44;;;;;;;2.58;1.10;;;26.70;49.80;;;;;;5031374;28;20209;-59
2022/05/31 12:19:24;;;;;;;3.45;1.40;;;27.00;48.30;;;;;;5031595;28;20241;-59
2022/05/31 12:21:56;;;;;;;1.67;1.05;;;27.30;48.00;;;;;;5031351;28;20233;-59
2022/05/31 12:24:29;;;;;;;2.03;1.15;;;27.40;46.20;;;;;;5031679;28;20210;-59
2022/05/31 12:27:01;;;;;;;4.10;1.10;;;27.50;46.60;;;;;;5030945;28;20206;-60
2022/05/31 12:29:32;;;;;;;2.00;1.23;;;27.50;46.90;;;;;;5031226;28;20237;-58
2022/05/31 12:32:29;;;;;;;3.05;1.55;;;27.50;47.00;;;;;;5031100;28;20253;-59
2022/05/31 12:34:57;;;;;;;3.90;1.33;;;27.50;46.80;;;;;;4996416;28;20206;-59
2022/05/31 12:37:24;;;;;;;3.67;1.40;;;27.60;47.90;;;;;;5031314;28;20202;-62
2022/05/31 12:40:12;;;;;;;4.32;1.42;;;27.40;47.80;;;;;;5031104;28;20234;-61
2022/05/31 12:42:41;;;;;;;5.65;1.90;;;27.30;47.70;;;;;;5031142;28;20229;-61
2022/05/31 12:45:39;;;;;;;2.25;1.20;;;27.20;46.10;;;;;;5030659;28;20206;-59
2022/05/31 12:48:17;;;;;;;2.10;1.20;;;26.80;47.50;;;;;;5030921;28;20210;-60
2022/05/31 12:50:50;;;;;;;3.55;1.10;;;26.40;46.70;;;;;;5035174;28;20264;-59
2022/05/31 12:53:22;;;;;;;2.75;1.20;;;26.10;47.30;;;;;;5035174;28;20226;-59
2022/05/31 12:55:55;;;;;;;3.28;1.25;;;26.00;47.20;;;;;;5034863;28;20248;-60
2022/05/31 12:58:39;;;;;;;2.33;0.95;;;26.00;47.20;;;;;;5035683;28;20596;-60
2022/05/31 13:01:28;;;;;;;2.80;1.00;;;26.10;47.80;;;;;;5035252;28;20236;-59
2022/05/31 13:03:57;;;;;;;3.13;1.42;;;26.30;47.40;;;;;;5035155;28;20214;-60
2022/05/31 13:06:35;;;;;;;2.53;1.38;;;26.40;46.30;;;;;;5035444;28;20256;-60
2022/05/31 13:09:05;;;;;;;4.53;1.25;;;26.40;46.30;;;;;;5035724;28;20656;-59
2022/05/31 13:20:13;;;;;;;3.13;1.10;;;26.10;45.50;;;;;;5035300;28;20218;-60
2022/05/31 13:22:43;;;;;;;3.45;1.00;;;25.80;45.90;;;;;;5035255;28;20288;-59
2022/05/31 13:25:18;;;;;;;1.92;0.98;;;25.60;45.90;;;;;;5035248;28;20252;-59
2022/05/31 13:27:51;;;;;;;3.30;1.17;;;25.40;46.80;;;;;;5035362;28;20206;-61
2022/05/31 13:30:21;;;;;;;5.97;1.13;;;25.20;46.70;;;;;;5035428;28;20202;-62
2022/05/31 13:32:48;;;;;;;4.13;1.20;;;25.10;46.70;;;;;;5035370;28;20298;-59
2022/05/31 13:35:17;;;;;;;3.50;1.00;;;24.80;47.40;;;;;;5034728;28;20209;-60